Winedale's Hourly Summary for Saturday, July 7, 2018
Hour Temp
(f)
RH
(%)
Solar Rad.
(MJ/m2)
Rainfall
(in)
Wind
(mph)
7/7/2018 12:00 AM 76 80 0 0 0.4
7/7/2018 1:00 AM 75 87 0 0 0
7/7/2018 2:00 AM 74 90 0 0 0.2
7/7/2018 3:00 AM 75 89 0 0 0.51
7/7/2018 4:00 AM 74 90 0 0 0.68
7/7/2018 5:00 AM 73 93 0 0 0
7/7/2018 6:00 AM 72 95 0 0 0.16
7/7/2018 7:00 AM 72 96 0.03 0 0.04
7/7/2018 8:00 AM 76 85 0.44 0 0.15
7/7/2018 9:00 AM 78 79 0.96 0 1.49
7/7/2018 10:00 AM 82 73 1.4 0 1.71
7/7/2018 11:00 AM 84 66 2.3 0 2.48
7/7/2018 12:00 PM 85 59 1.9 0 3
7/7/2018 1:00 PM 87 57 2.13 0 3.71
7/7/2018 2:00 PM 88 52 2.66 0 2.31
7/7/2018 3:00 PM 80 53 0.47 0.01 6.68
7/7/2018 4:00 PM 74 86 0.35 0.01 3.99
7/7/2018 5:00 PM 74 89 0.58 0.01 4.63
7/7/2018 6:00 PM 77 80 0.86 0 4
7/7/2018 7:00 PM 77 82 0.27 0 1.8
7/7/2018 8:00 PM 76 90 0.16 0 0.15
7/7/2018 9:00 PM 76 92 0.02 0 0
7/7/2018 10:00 PM 75 95 0 0 0.01
7/7/2018 11:00 PM 74 96 0 0 0
Data Summary 77 81 14.53 0.03 1.59